createdAt,value
2023-05-09T00:00:04.157Z,87.65
2023-05-09T00:02:54.660Z,88.10
2023-05-09T00:05:42.681Z,87.75
2023-05-09T00:08:32.229Z,87.56
2023-05-09T00:11:20.122Z,87.83
2023-05-09T00:14:08.651Z,87.49
2023-05-09T00:16:57.520Z,87.65
2023-05-09T00:19:45.930Z,88.24
2023-05-09T00:22:33.847Z,88.42
2023-05-09T00:25:23.101Z,88.03
2023-05-09T00:28:11.476Z,87.44
2023-05-09T00:30:59.504Z,87.85
2023-05-09T00:33:47.668Z,88.32
2023-05-09T00:36:35.597Z,88.45
2023-05-09T00:39:23.825Z,88.09
2023-05-09T00:42:13.237Z,88.04
2023-05-09T00:45:01.877Z,88.57
2023-05-09T00:47:49.968Z,88.56
2023-05-09T00:50:38.079Z,88.26
2023-05-09T00:53:27.019Z,88.60
2023-05-09T00:56:16.442Z,88.74
2023-05-09T00:59:06.621Z,88.45
2023-05-09T01:01:54.568Z,88.97
2023-05-09T01:04:44.252Z,88.84
2023-05-09T01:07:38.325Z,88.47
2023-05-09T01:10:35.933Z,88.46
2023-05-09T01:13:28.238Z,88.56
2023-05-09T01:16:24.775Z,88.46
2023-05-09T01:19:37.474Z,88.13
2023-05-09T01:22:30.958Z,88.08
2023-05-09T01:25:42.002Z,88.12
2023-05-09T01:28:45.546Z,88.07
2023-05-09T01:31:39.407Z,88.73
2023-05-09T01:34:29.535Z,88.87
2023-05-09T01:37:20.733Z,88.69
2023-05-09T01:40:13.157Z,89.05
2023-05-09T01:43:04.729Z,89.39
2023-05-09T01:45:54.654Z,89.24
2023-05-09T01:48:45.540Z,89.19
2023-05-09T01:51:35.609Z,89.29
2023-05-09T01:54:26.529Z,88.98
2023-05-09T01:57:15.868Z,89.45
2023-05-09T02:00:07.870Z,89.72
2023-05-09T02:03:02.266Z,89.80
2023-05-09T02:05:53.143Z,89.79
2023-05-09T02:08:42.331Z,90.30
2023-05-09T02:11:30.224Z,89.75
2023-05-09T02:14:18.876Z,89.71
2023-05-09T02:17:09.435Z,89.55
2023-05-09T02:19:57.640Z,89.78
2023-05-09T02:22:48.102Z,89.37
2023-05-09T02:25:36.108Z,89.36
2023-05-09T02:28:26.782Z,88.66
2023-05-09T02:31:17.468Z,88.86
2023-05-09T02:34:06.519Z,89.15
2023-05-09T02:36:56.322Z,89.73
2023-05-09T02:39:46.153Z,89.95
2023-05-09T02:42:34.052Z,89.86
2023-05-09T02:45:22.388Z,90.02
2023-05-09T02:48:10.350Z,90.32
2023-05-09T02:50:58.831Z,90.67
2023-05-09T02:53:46.878Z,90.68
2023-05-09T02:56:36.262Z,90.97
2023-05-09T02:59:24.422Z,91.15
2023-05-09T03:02:12.553Z,91.16
2023-05-09T03:05:01.363Z,91.63
2023-05-09T03:07:50.528Z,91.58
2023-05-09T03:10:39.041Z,91.18
2023-05-09T03:13:28.260Z,90.53
2023-05-09T03:16:19.546Z,91.19
2023-05-09T03:19:08.337Z,91.01
2023-05-09T03:21:56.481Z,91.63
2023-05-09T03:24:44.895Z,91.65
2023-05-09T03:27:32.915Z,91.37
2023-05-09T03:30:23.576Z,92.14
2023-05-09T03:33:12.567Z,92.31
2023-05-09T03:36:00.692Z,92.62
2023-05-09T03:38:49.111Z,92.09
2023-05-09T03:41:38.227Z,91.74
2023-05-09T03:44:27.819Z,91.91
2023-05-09T03:47:17.314Z,91.93
2023-05-09T03:50:07.106Z,92.29
2023-05-09T03:52:56.948Z,92.03
2023-05-09T03:55:45.412Z,92.20
2023-05-09T03:58:34.886Z,91.77
2023-05-09T04:01:23.225Z,91.73
2023-05-09T04:04:12.673Z,91.68
2023-05-09T04:07:00.841Z,91.97
2023-05-09T04:09:49.462Z,91.68
2023-05-09T04:12:38.031Z,91.82
2023-05-09T04:15:26.273Z,91.57
2023-05-09T04:18:15.340Z,91.71
2023-05-09T04:21:05.161Z,91.44
2023-05-09T04:23:53.605Z,91.22
2023-05-09T04:26:48.754Z,90.46
2023-05-09T04:29:41.851Z,90.23
2023-05-09T04:32:31.211Z,90.19
2023-05-09T04:35:20.862Z,90.32
2023-05-09T04:38:12.910Z,89.95
2023-05-09T04:41:01.811Z,89.17
2023-05-09T04:43:49.918Z,89.68
2023-05-09T04:46:38.160Z,89.49
2023-05-09T04:49:26.536Z,89.12
2023-05-09T04:52:14.441Z,88.69
2023-05-09T04:55:04.241Z,88.70
2023-05-09T04:57:57.566Z,89.09
2023-05-09T05:00:46.392Z,88.71
2023-05-09T05:03:35.900Z,88.55
2023-05-09T05:06:24.167Z,88.21
2023-05-09T05:09:12.995Z,88.38
2023-05-09T05:12:04.174Z,88.46
2023-05-09T05:14:53.708Z,87.93
2023-05-09T05:17:43.971Z,87.74
2023-05-09T05:20:32.493Z,86.82
2023-05-09T05:23:20.779Z,86.33
2023-05-09T05:26:10.969Z,87.23
2023-05-09T05:29:01.200Z,86.61
2023-05-09T05:31:49.280Z,85.92
2023-05-09T05:34:39.413Z,84.33
2023-05-09T05:37:27.965Z,83.80
2023-05-09T05:40:16.873Z,82.07
2023-05-09T05:43:07.664Z,83.33
2023-05-09T05:45:59.780Z,83.47
2023-05-09T05:48:49.492Z,82.62
2023-05-09T05:51:37.743Z,81.07
2023-05-09T05:54:27.634Z,80.79
2023-05-09T05:57:15.975Z,80.53
2023-05-09T06:00:07.311Z,79.09
2023-05-09T06:03:02.872Z,79.82
2023-05-09T06:06:02.865Z,78.79
2023-05-09T06:08:51.060Z,78.95
2023-05-09T06:11:39.687Z,78.13
2023-05-09T06:14:27.624Z,77.78
2023-05-09T06:20:05.770Z,79.11
2023-05-09T06:22:53.651Z,77.75
2023-05-09T06:25:41.750Z,79.36
2023-05-09T06:28:29.640Z,78.31
2023-05-09T06:31:17.708Z,77.52
2023-05-09T06:34:06.086Z,75.80
2023-05-09T06:36:55.526Z,77.28
2023-05-09T06:39:43.459Z,76.99
2023-05-09T06:42:33.743Z,76.43
2023-05-09T06:45:21.918Z,74.00
2023-05-09T06:48:09.963Z,74.25
2023-05-09T06:50:57.868Z,76.51
2023-05-09T06:53:47.382Z,75.88
2023-05-09T06:56:35.674Z,76.35
2023-05-09T06:59:23.627Z,73.48
2023-05-09T07:02:12.209Z,74.98
2023-05-09T07:05:00.254Z,73.95
2023-05-09T07:07:48.543Z,73.37
2023-05-09T07:10:38.582Z,73.57
2023-05-09T07:13:26.900Z,72.89
2023-05-09T07:16:14.884Z,74.92
2023-05-09T07:19:04.087Z,73.42
2023-05-09T07:21:51.989Z,73.59
2023-05-09T07:24:39.886Z,74.09
2023-05-09T07:27:29.468Z,75.04
2023-05-09T07:30:17.691Z,74.00
2023-05-09T07:33:06.710Z,76.57
2023-05-09T07:35:54.736Z,75.56
2023-05-09T07:38:42.760Z,75.94
2023-05-09T07:41:30.677Z,76.57
2023-05-09T07:44:19.914Z,76.70
2023-05-09T07:47:09.016Z,77.19
2023-05-09T07:49:57.040Z,76.73
2023-05-09T07:52:46.609Z,75.55
2023-05-09T07:55:34.530Z,74.86
2023-05-09T07:58:23.007Z,75.76
2023-05-09T08:01:12.229Z,76.92
2023-05-09T08:04:00.523Z,76.91
2023-05-09T08:06:50.035Z,77.46
2023-05-09T08:09:37.989Z,76.72
2023-05-09T08:12:25.997Z,77.05
2023-05-09T08:15:15.095Z,76.46
2023-05-09T08:18:06.633Z,75.58
2023-05-09T08:20:54.603Z,75.36
2023-05-09T08:23:42.684Z,71.39
2023-05-09T08:26:30.662Z,72.14
2023-05-09T08:29:18.955Z,71.86
2023-05-09T08:32:06.998Z,71.70
2023-05-09T08:34:56.503Z,70.95
2023-05-09T08:37:44.445Z,69.58
2023-05-09T08:40:37.036Z,68.79
2023-05-09T08:43:25.510Z,68.84
2023-05-09T08:46:15.248Z,68.84
2023-05-09T08:49:06.115Z,68.47
2023-05-09T08:51:55.722Z,67.36
2023-05-09T08:54:44.007Z,68.44
2023-05-09T08:57:33.583Z,69.15
2023-05-09T09:00:22.595Z,69.86
2023-05-09T09:03:11.462Z,70.62
2023-05-09T09:06:00.379Z,70.70
2023-05-09T09:08:51.909Z,71.22
2023-05-09T09:11:41.850Z,70.22
2023-05-09T09:14:33.323Z,70.37
2023-05-09T09:17:27.926Z,69.54
2023-05-09T09:20:17.651Z,68.89
2023-05-09T09:23:10.952Z,68.77
2023-05-09T09:26:02.019Z,70.34
2023-05-09T09:28:50.036Z,71.03
2023-05-09T09:31:37.982Z,70.63
2023-05-09T09:34:26.991Z,70.74
2023-05-09T09:37:23.076Z,70.37
2023-05-09T09:40:12.863Z,68.60
2023-05-09T09:43:02.294Z,69.44
2023-05-09T09:45:51.740Z,67.82
2023-05-09T09:48:40.439Z,67.98
2023-05-09T09:51:30.110Z,67.24
2023-05-09T09:54:18.066Z,68.57
2023-05-09T09:57:06.490Z,65.40
2023-05-09T10:00:00.484Z,65.03
2023-05-09T10:02:50.340Z,62.42
2023-05-09T10:05:40.865Z,62.95
2023-05-09T10:08:28.786Z,63.43
2023-05-09T10:11:17.066Z,61.92
2023-05-09T10:14:05.041Z,62.42
2023-05-09T10:16:57.688Z,61.31
2023-05-09T10:19:47.527Z,60.47
2023-05-09T10:22:37.282Z,61.80
2023-05-09T10:25:33.792Z,59.29
2023-05-09T10:28:28.765Z,60.78
2023-05-09T10:31:22.047Z,61.73
2023-05-09T10:34:13.007Z,61.50
2023-05-09T10:37:01.522Z,64.68
2023-05-09T10:39:53.347Z,62.02
2023-05-09T10:42:41.569Z,61.82
2023-05-09T10:45:30.313Z,61.41
2023-05-09T10:48:19.362Z,60.03
2023-05-09T10:51:09.423Z,58.32
2023-05-09T10:53:57.924Z,60.63
2023-05-09T10:56:47.521Z,60.78
2023-05-09T10:59:38.084Z,59.98
2023-05-09T11:02:29.469Z,59.99
2023-05-09T11:05:18.912Z,58.30
2023-05-09T11:08:21.968Z,57.98
2023-05-09T11:11:25.551Z,58.57
2023-05-09T11:14:30.133Z,58.22
2023-05-09T11:17:29.628Z,60.93
2023-05-09T11:20:17.608Z,59.23
2023-05-09T11:23:06.981Z,59.64
2023-05-09T11:26:06.548Z,59.41
2023-05-09T11:28:56.894Z,58.10
2023-05-09T11:32:06.058Z,59.95
2023-05-09T11:35:06.471Z,56.07
2023-05-09T11:38:01.682Z,59.05
2023-05-09T11:40:49.612Z,58.97
2023-05-09T11:43:39.848Z,58.47
2023-05-09T11:46:28.082Z,58.90
2023-05-09T11:49:17.225Z,60.97
2023-05-09T11:52:06.319Z,63.27
2023-05-09T11:54:54.391Z,63.47
2023-05-09T11:57:44.857Z,61.68
2023-05-09T12:00:34.233Z,61.82
2023-05-09T12:03:22.329Z,63.85
2023-05-09T12:06:10.650Z,62.85
2023-05-09T12:08:58.966Z,63.24
2023-05-09T12:11:50.830Z,65.13
2023-05-09T12:14:39.492Z,64.83
2023-05-09T12:17:29.351Z,61.95
2023-05-09T12:20:17.594Z,61.35
2023-05-09T12:23:05.936Z,62.97
2023-05-09T12:25:55.298Z,61.91
2023-05-09T12:28:44.565Z,58.62
2023-05-09T12:31:32.999Z,58.23
2023-05-09T12:34:23.417Z,60.53
2023-05-09T12:37:15.979Z,61.00
2023-05-09T12:40:08.358Z,58.04
2023-05-09T12:43:00.789Z,58.56
2023-05-09T12:45:53.614Z,53.66
2023-05-09T12:48:42.068Z,55.00
2023-05-09T12:51:31.464Z,59.18
2023-05-09T12:54:22.377Z,59.66
2023-05-09T12:57:22.655Z,59.76
2023-05-09T13:00:12.110Z,55.64
2023-05-09T13:03:00.237Z,57.58
2023-05-09T13:05:55.556Z,57.45
2023-05-09T13:08:44.825Z,55.30
2023-05-09T13:11:32.796Z,54.25
2023-05-09T13:14:23.969Z,50.40
2023-05-09T13:17:12.348Z,51.19
2023-05-09T13:20:00.332Z,54.17
2023-05-09T13:23:24.673Z,55.45
2023-05-09T13:26:14.087Z,57.70
2023-05-09T13:29:02.015Z,58.44
2023-05-09T13:31:50.195Z,59.16
2023-05-09T13:34:38.107Z,59.06
2023-05-09T13:37:27.816Z,59.05
2023-05-09T13:40:16.040Z,60.25
2023-05-09T13:43:05.831Z,60.82
2023-05-09T13:45:53.836Z,63.77
2023-05-09T13:48:42.134Z,60.12
2023-05-09T13:51:30.070Z,60.86
2023-05-09T13:54:20.384Z,63.32
2023-05-09T13:57:08.544Z,65.41
2023-05-09T13:59:58.489Z,64.16
2023-05-09T14:02:46.395Z,58.91
2023-05-09T14:05:35.333Z,60.88
2023-05-09T14:08:23.515Z,60.57
2023-05-09T14:11:12.021Z,58.40
2023-05-09T14:13:59.980Z,56.44
2023-05-09T14:16:50.220Z,54.19
2023-05-09T14:19:38.173Z,53.96
2023-05-09T14:22:26.466Z,53.70
2023-05-09T14:25:14.389Z,52.81
2023-05-09T14:28:02.483Z,50.38
2023-05-09T14:30:50.518Z,53.75
2023-05-09T14:33:40.693Z,53.14
2023-05-09T14:36:29.027Z,53.95
2023-05-09T14:39:17.045Z,54.99
2023-05-09T14:42:05.823Z,53.61
2023-05-09T14:44:54.014Z,52.87
2023-05-09T14:47:42.142Z,55.93
2023-05-09T14:50:32.385Z,54.27
2023-05-09T14:53:20.665Z,59.83
2023-05-09T14:56:09.639Z,59.60
2023-05-09T14:58:57.586Z,59.75
2023-05-09T15:01:46.688Z,62.68
2023-05-09T15:04:34.680Z,58.14
2023-05-09T15:07:24.699Z,58.46
2023-05-09T15:10:12.993Z,59.07
2023-05-09T15:13:02.733Z,60.89
2023-05-09T15:15:53.008Z,59.94
2023-05-09T15:18:45.255Z,62.60
2023-05-09T15:21:34.315Z,65.20
2023-05-09T15:24:23.794Z,65.61
2023-05-09T15:27:11.829Z,66.63
2023-05-09T15:30:00.705Z,67.78
2023-05-09T15:32:48.652Z,69.37
2023-05-09T15:35:37.175Z,69.97
2023-05-09T15:38:25.075Z,71.93
2023-05-09T15:41:14.728Z,73.33
2023-05-09T15:44:02.640Z,74.13
2023-05-09T15:46:50.890Z,74.46
2023-05-09T15:49:38.849Z,74.76
2023-05-09T15:52:28.008Z,74.70
2023-05-09T15:55:16.093Z,74.98
2023-05-09T15:58:05.904Z,75.30
2023-05-09T16:00:54.166Z,74.61
2023-05-09T16:03:43.355Z,70.24
2023-05-09T16:06:32.848Z,71.14
2023-05-09T16:09:20.915Z,71.67
2023-05-09T16:12:09.296Z,72.51
2023-05-09T16:14:58.825Z,73.46
2023-05-09T16:17:46.917Z,74.46
2023-05-09T16:20:35.296Z,71.47
2023-05-09T16:23:24.358Z,71.96
2023-05-09T16:26:12.464Z,72.10
2023-05-09T16:29:01.762Z,71.81
2023-05-09T16:31:51.341Z,71.97
2023-05-09T16:34:39.320Z,72.72
2023-05-09T16:37:29.132Z,72.82
2023-05-09T16:40:17.272Z,74.09
2023-05-09T16:43:05.744Z,73.33
2023-05-09T16:45:53.705Z,74.10
2023-05-09T16:48:43.302Z,74.50
2023-05-09T16:51:31.739Z,75.51
2023-05-09T16:54:19.895Z,76.00
2023-05-09T16:57:08.338Z,77.22
2023-05-09T16:59:56.561Z,79.32
2023-05-09T17:02:44.597Z,82.16
2023-05-09T17:05:34.124Z,83.80
2023-05-09T17:08:22.425Z,85.09
2023-05-09T17:11:10.957Z,84.83
2023-05-09T17:13:58.936Z,85.56
2023-05-09T17:16:47.548Z,86.38
2023-05-09T17:19:36.678Z,86.94
2023-05-09T17:22:27.030Z,87.26
2023-05-09T17:25:14.945Z,87.54
2023-05-09T17:28:03.404Z,88.25
2023-05-09T17:30:51.326Z,87.52
2023-05-09T17:33:40.106Z,87.21
2023-05-09T17:36:28.037Z,87.50
2023-05-09T17:39:17.845Z,88.10
2023-05-09T17:42:06.822Z,88.36
2023-05-09T17:44:54.877Z,88.46
2023-05-09T17:47:43.218Z,88.32
2023-05-09T17:50:31.410Z,88.97
2023-05-09T17:53:19.777Z,89.43
2023-05-09T17:56:09.160Z,89.33
2023-05-09T17:58:57.313Z,89.28
2023-05-09T18:01:45.301Z,90.04
2023-05-09T18:04:34.524Z,90.01
2023-05-09T18:07:22.801Z,90.44
2023-05-09T18:10:11.803Z,90.73
2023-05-09T18:13:01.090Z,91.01
2023-05-09T18:15:49.515Z,90.66
2023-05-09T18:18:37.486Z,90.55
2023-05-09T18:21:25.721Z,90.73
2023-05-09T18:24:16.207Z,90.65
2023-05-09T18:27:05.298Z,90.20
2023-05-09T18:29:54.797Z,90.36
2023-05-09T18:32:43.110Z,89.50
2023-05-09T18:35:31.567Z,89.57
2023-05-09T18:38:19.670Z,87.78
2023-05-09T18:41:10.264Z,88.96
2023-05-09T18:43:59.061Z,89.35
2023-05-09T18:46:48.342Z,89.71
2023-05-09T18:49:36.514Z,90.34
2023-05-09T18:52:24.430Z,89.95
2023-05-09T18:55:13.339Z,90.41
2023-05-09T18:58:01.300Z,89.81
2023-05-09T19:00:49.470Z,89.61
2023-05-09T19:03:43.349Z,89.20
2023-05-09T19:06:32.554Z,90.33
2023-05-09T19:09:20.528Z,90.24
2023-05-09T19:12:09.696Z,90.04
2023-05-09T19:14:57.603Z,90.29
2023-05-09T19:17:45.826Z,90.33
2023-05-09T19:20:35.177Z,90.26
2023-05-09T19:23:23.760Z,90.67
2023-05-09T19:26:11.680Z,90.20
2023-05-09T19:29:01.782Z,90.69
2023-05-09T19:31:51.019Z,89.90
2023-05-09T19:34:38.928Z,89.71
2023-05-09T19:37:28.488Z,90.22
2023-05-09T19:40:16.636Z,90.86
2023-05-09T19:43:04.895Z,90.27
2023-05-09T19:45:52.896Z,91.00
2023-05-09T19:48:41.336Z,91.01
2023-05-09T19:51:29.549Z,90.61
2023-05-09T19:54:18.856Z,90.47
2023-05-09T19:57:06.845Z,90.71
2023-05-09T19:59:55.731Z,90.40
2023-05-09T20:02:43.763Z,89.37
2023-05-09T20:05:32.025Z,90.26
2023-05-09T20:08:19.946Z,89.89
2023-05-09T20:11:09.642Z,90.13
2023-05-09T20:13:57.638Z,90.13
2023-05-09T20:16:46.406Z,90.19
2023-05-09T20:19:34.418Z,90.01
2023-05-09T20:22:22.560Z,89.87
2023-05-09T20:25:13.028Z,90.20
2023-05-09T20:28:02.759Z,90.34
2023-05-09T20:30:50.873Z,90.55
2023-05-09T20:33:40.194Z,90.61
2023-05-09T20:36:28.451Z,90.76
2023-05-09T20:39:17.862Z,91.05
2023-05-09T20:42:06.533Z,91.23
2023-05-09T20:44:56.497Z,91.11
2023-05-09T20:47:44.428Z,91.05
2023-05-09T20:50:32.681Z,91.47
2023-05-09T20:53:20.616Z,91.57
2023-05-09T20:56:08.554Z,91.32
2023-05-09T20:58:59.806Z,91.21
2023-05-09T21:01:49.324Z,90.99
2023-05-09T21:04:37.307Z,91.30
2023-05-09T21:07:25.539Z,91.43
2023-05-09T21:10:13.779Z,91.83
2023-05-09T21:13:02.148Z,92.02
2023-05-09T21:15:50.805Z,91.83
2023-05-09T21:18:40.415Z,92.41
2023-05-09T21:21:28.445Z,92.18
2023-05-09T21:24:16.605Z,92.05
2023-05-09T21:27:04.815Z,92.02
2023-05-09T21:29:52.995Z,91.38
2023-05-09T21:32:40.933Z,91.33
2023-05-09T21:35:30.918Z,91.11
2023-05-09T21:38:18.835Z,91.80
2023-05-09T21:41:07.144Z,91.01
2023-05-09T21:43:55.037Z,91.90
2023-05-09T21:46:46.288Z,91.70
2023-05-09T21:49:34.698Z,90.39
2023-05-09T21:52:24.040Z,90.25
2023-05-09T21:55:12.016Z,90.42
2023-05-09T21:58:00.228Z,89.89
2023-05-09T22:00:48.154Z,89.94
2023-05-09T22:03:36.847Z,89.90
2023-05-09T22:06:24.882Z,90.68
2023-05-09T22:09:14.337Z,90.89
2023-05-09T22:12:02.302Z,91.33
2023-05-09T22:14:56.325Z,90.75
2023-05-09T22:17:44.916Z,90.75
2023-05-09T22:20:33.307Z,91.07
2023-05-09T22:23:21.283Z,91.02
2023-05-09T22:26:10.900Z,91.08
2023-05-09T22:28:58.808Z,91.55
2023-05-09T22:31:46.920Z,91.39
2023-05-09T22:34:34.982Z,91.74
2023-05-09T22:37:23.221Z,91.40
2023-05-09T22:40:11.657Z,92.18
2023-05-09T22:43:02.015Z,92.07
2023-05-09T22:45:50.034Z,92.00
2023-05-09T22:48:38.121Z,92.40
2023-05-09T22:51:26.152Z,92.47
2023-05-09T22:54:14.211Z,92.99
2023-05-09T22:57:02.111Z,92.76
2023-05-09T22:59:51.769Z,92.73
2023-05-09T23:02:39.858Z,92.83
2023-05-09T23:05:28.078Z,92.91
2023-05-09T23:08:16.070Z,93.14
2023-05-09T23:11:05.368Z,93.17
2023-05-09T23:13:53.300Z,92.79
2023-05-09T23:16:42.844Z,92.63
2023-05-09T23:19:30.767Z,92.09
2023-05-09T23:22:18.904Z,91.98
2023-05-09T23:25:08.401Z,92.13
2023-05-09T23:27:56.400Z,91.88
2023-05-09T23:30:44.339Z,90.74
2023-05-09T23:33:33.975Z,91.00
2023-05-09T23:36:21.968Z,91.21
2023-05-09T23:39:10.206Z,91.16
2023-05-09T23:41:58.432Z,91.04
2023-05-09T23:44:46.612Z,91.32
2023-05-09T23:47:34.577Z,91.21
2023-05-09T23:50:24.460Z,91.87
2023-05-09T23:53:12.336Z,92.07
2023-05-09T23:56:00.453Z,91.77
2023-05-09T23:58:48.388Z,91.70
